Date,TemperatureHighF,TemperatureAvgF,TemperatureLowF,DewpointHighF,DewpointAvgF,DewpointLowF,HumidityHigh,HumidityAvg,HumidityLow,PressureMaxIn,PressureMinIn,WindSpeedMaxMPH,WindSpeedAvgMPH,GustSpeedMaxMPH,PrecipitationSumIn
2013-5-1,35.0,25.0,15.0,16.0,12.1,6.0,87,60,36,0.00,40.00,16,9,20,0.01
2013-5-2,50.0,38.3,26.0,16.0,10.7,3.0,56,35,15,0.00,40.00,17,10,24,0.00
2013-5-3,41.0,36.9,32.0,31.0,21.8,13.0,95,58,32,0.00,40.00,18,10,25,0.00
2013-5-4,39.0,34.9,31.0,31.0,27.9,25.0,95,76,61,0.00,40.00,16,10,29,0.00
2013-5-5,51.0,41.1,33.0,34.0,28.8,25.0,83,63,42,0.00,40.00,12,6,17,0.00
2013-5-6,57.0,50.2,42.0,32.0,26.1,23.0,47,39,31,0.00,40.00,12,6,19,0.00
2013-5-7,57.0,51.0,45.0,30.0,26.1,23.0,52,38,28,0.00,40.00,19,7,31,0.00
2013-5-8,61.0,50.9,43.0,35.0,30.2,26.0,59,46,30,0.00,40.00,14,6,22,0.00
2013-5-9,60.0,52.9,48.0,35.0,30.3,26.0,51,42,35,0.00,40.00,13,8,26,0.00
2013-5-10,62.0,54.4,49.0,33.0,27.8,-99.9,52,38,27,0.00,40.00,13,9,21,0.00
2013-5-11,65.0,56.1,50.0,35.0,29.0,-99.9,45,37,29,0.00,40.00,17,9,23,0.00
2013-5-12,69.0,60.2,53.0,40.0,34.1,28.0,57,39,22,0.00,40.00,21,11,34,0.00
2013-5-13,68.0,54.1,39.0,44.0,38.8,29.0,84,60,24,0.00,40.00,27,13,48,0.18
2013-5-14,54.0,42.3,34.0,34.0,27.0,23.0,83,57,30,0.00,40.00,18,11,43,0.00
2013-5-15,56.0,43.1,36.0,37.0,29.9,25.0,93,61,37,0.00,40.00,21,7,27,0.04
2013-5-16,49.0,36.9,36.0,40.0,13.6,-99.9,92,77,62,0.00,40.00,12,6,20,0.06
2013-5-17,40.0,36.2,33.0,36.0,26.9,-99.9,96,86,64,0.00,40.00,10,7,14,0.42
2013-5-18,45.0,37.8,34.0,39.0,33.9,30.0,96,87,64,0.00,40.00,23,11,32,0.01
2013-5-19,43.0,36.6,33.0,34.0,32.5,31.0,95,85,70,0.00,40.00,13,11,18,0.00
2013-5-20,56.0,42.3,34.0,36.0,34.0,31.0,96,75,47,0.00,40.00,13,8,19,0.00
2013-5-21,58.0,48.2,39.0,36.0,32.5,28.0,77,57,33,0.00,40.00,19,13,30,0.04
2013-5-22,48.0,39.2,28.0,40.0,34.1,27.0,95,83,70,0.00,40.00,17,10,26,0.14
2013-5-23,44.0,32.3,26.0,32.0,24.7,21.0,94,76,48,0.00,40.00,15,7,29,0.02
2013-5-24,46.0,34.7,28.0,32.0,26.8,19.0,91,74,41,0.00,40.00,16,10,29,0.00
2013-5-25,49.0,38.7,30.0,40.0,30.3,25.0,91,73,53,0.00,40.00,12,7,22,0.01
2013-5-26,54.0,41.0,36.0,36.0,31.5,27.0,95,70,50,0.00,40.00,14,6,28,0.21
2013-5-27,48.0,40.1,34.0,38.0,34.6,32.0,96,82,57,0.00,40.00,14,6,20,0.11
2013-5-28,47.0,39.5,35.0,38.0,35.4,33.0,95,86,68,0.00,40.00,18,9,22,0.15
2013-5-29,57.0,40.1,33.0,34.0,31.1,25.0,93,74,32,0.00,40.00,18,9,31,0.03
2013-5-30,45.0,36.4,31.0,33.0,29.4,27.0,94,77,53,0.00,40.00,22,14,31,0.03
2013-5-31,46.0,36.9,30.0,28.0,25.2,21.0,86,64,44,0.00,40.00,14,9,26,0.00